createdAt,value
2023-05-02T00:00:11.114Z,1017.71
2023-05-02T00:00:26.573Z,1017.71
2023-05-02T00:00:58.043Z,1017.81
2023-05-02T00:01:29.402Z,1017.81
2023-05-02T00:02:01.802Z,1017.71
2023-05-02T00:02:33.520Z,1017.71
2023-05-02T00:03:06.599Z,1017.71
2023-05-02T00:03:37.744Z,1017.71
2023-05-02T00:04:10.404Z,1018.01
2023-05-02T00:04:26.593Z,1018.01
2023-05-02T00:04:57.614Z,1017.81
2023-05-02T00:05:30.068Z,1017.81
2023-05-02T00:06:01.887Z,1017.91
2023-05-02T00:06:33.740Z,1017.91
2023-05-02T00:07:06.374Z,1018.01
2023-05-02T00:07:37.853Z,1018.01
2023-05-02T00:08:09.541Z,1017.91
2023-05-02T00:08:26.406Z,1017.91
2023-05-02T00:08:57.545Z,1017.91
2023-05-02T00:09:29.400Z,1017.91
2023-05-02T00:10:03.342Z,1017.81
2023-05-02T00:10:33.453Z,1017.81
2023-05-02T00:11:06.280Z,1017.91
2023-05-02T00:11:37.614Z,1017.91
2023-05-02T00:12:09.521Z,1017.81
2023-05-02T00:12:26.349Z,1017.81
2023-05-02T00:12:57.589Z,1017.71
2023-05-02T00:13:29.527Z,1017.71
2023-05-02T00:13:46.441Z,1017.91
2023-05-02T00:14:17.764Z,1017.91
2023-05-02T00:14:39.346Z,1017.71
2023-05-02T00:15:07.805Z,1017.71
2023-05-02T00:15:38.161Z,1017.71
2023-05-02T00:16:09.554Z,1017.91
2023-05-02T00:16:26.591Z,1017.91
2023-05-02T00:16:57.701Z,1017.71
2023-05-02T00:17:29.651Z,1017.71
2023-05-02T00:17:46.248Z,1017.91
2023-05-02T00:18:17.786Z,1017.91
2023-05-02T00:18:39.437Z,1018.01
2023-05-02T00:19:06.418Z,1018.01
2023-05-02T00:19:37.726Z,1018.01
2023-05-02T00:20:09.928Z,1017.91
2023-05-02T00:20:26.414Z,1017.91
2023-05-02T00:20:57.952Z,1017.81
2023-05-02T00:21:29.468Z,1017.81
2023-05-02T00:22:01.874Z,1017.81
2023-05-02T00:22:33.477Z,1017.81
2023-05-02T00:23:06.388Z,1017.91
2023-05-02T00:23:37.669Z,1017.91
2023-05-02T00:24:09.583Z,1017.91
2023-05-02T00:24:26.424Z,1017.91
2023-05-02T00:24:57.525Z,1017.71
2023-05-02T00:25:29.866Z,1017.71
2023-05-02T00:26:02.003Z,1017.91
2023-05-02T00:26:33.451Z,1017.91
2023-05-02T00:27:06.410Z,1017.91
2023-05-02T00:27:37.578Z,1017.91
2023-05-02T00:28:09.459Z,1017.91
2023-05-02T00:28:26.471Z,1017.91
2023-05-02T00:28:57.525Z,1018.01
2023-05-02T00:29:29.526Z,1018.01
2023-05-02T00:30:03.977Z,1018.12
2023-05-02T00:30:33.667Z,1018.12
2023-05-02T00:31:06.482Z,1018.01
2023-05-02T00:31:37.907Z,1018.01
2023-05-02T00:32:09.562Z,1017.61
2023-05-02T00:32:26.668Z,1017.61
2023-05-02T00:32:57.651Z,1017.91
2023-05-02T00:33:29.506Z,1017.91
2023-05-02T00:34:01.899Z,1017.81
2023-05-02T00:34:33.443Z,1017.81
2023-05-02T00:35:07.325Z,1018.12
2023-05-02T00:35:37.692Z,1018.12
2023-05-02T00:36:09.487Z,1018.01
2023-05-02T00:36:27.275Z,1018.01
2023-05-02T00:36:57.612Z,1018.01
2023-05-02T00:37:29.549Z,1018.01
2023-05-02T00:38:01.918Z,1017.71
2023-05-02T00:38:33.456Z,1017.71
2023-05-02T00:39:06.276Z,1017.61
2023-05-02T00:39:37.660Z,1017.61
2023-05-02T00:40:09.991Z,1017.81
2023-05-02T00:40:26.763Z,1017.81
2023-05-02T00:40:58.172Z,1017.71
2023-05-02T00:41:29.850Z,1017.71
2023-05-02T00:42:01.887Z,1017.81
2023-05-02T00:42:33.531Z,1017.81
2023-05-02T00:43:07.572Z,1017.71
2023-05-02T00:43:37.640Z,1017.71
2023-05-02T00:44:09.576Z,1017.81
2023-05-02T00:44:26.348Z,1017.81
2023-05-02T00:44:57.505Z,1017.71
2023-05-02T00:45:30.835Z,1017.71
2023-05-02T00:46:01.846Z,1017.81
2023-05-02T00:46:33.725Z,1017.81
2023-05-02T00:47:06.313Z,1017.91
2023-05-02T00:47:37.607Z,1017.91
2023-05-02T00:48:09.756Z,1017.91
2023-05-02T00:48:26.410Z,1017.91
2023-05-02T00:48:57.637Z,1017.81
2023-05-02T00:49:29.587Z,1017.81
2023-05-02T00:50:02.935Z,1017.91
2023-05-02T00:50:33.918Z,1017.91
2023-05-02T00:51:06.433Z,1018.12
2023-05-02T00:51:37.660Z,1018.12
2023-05-02T00:52:09.522Z,1017.91
2023-05-02T00:52:26.465Z,1017.91
2023-05-02T00:52:57.645Z,1017.81
2023-05-02T00:53:29.575Z,1017.81
2023-05-02T00:54:01.709Z,1017.81
2023-05-02T00:54:34.037Z,1017.81
2023-05-02T00:55:07.118Z,1018.01
2023-05-02T00:55:37.551Z,1018.01
2023-05-02T00:56:09.410Z,1017.81
2023-05-02T00:56:26.569Z,1017.81
2023-05-02T00:56:57.715Z,1017.81
2023-05-02T00:57:29.384Z,1017.81
2023-05-02T00:58:01.677Z,1017.81
2023-05-02T00:58:33.396Z,1017.81
2023-05-02T00:59:06.257Z,1017.91
2023-05-02T00:59:37.933Z,1017.91
2023-05-02T01:00:10.956Z,1018.01
2023-05-02T01:00:27.889Z,1018.01
2023-05-02T01:00:58.059Z,1017.61
2023-05-02T01:01:29.592Z,1017.61
2023-05-02T01:02:01.857Z,1017.71
2023-05-02T01:02:33.591Z,1017.71
2023-05-02T01:03:06.518Z,1017.91
2023-05-02T01:03:37.793Z,1017.91
2023-05-02T01:04:09.795Z,1017.71
2023-05-02T01:04:26.562Z,1017.71
2023-05-02T01:04:57.621Z,1017.91
2023-05-02T01:05:30.057Z,1017.91
2023-05-02T01:06:01.885Z,1017.71
2023-05-02T01:06:33.599Z,1017.71
2023-05-02T01:07:06.317Z,1017.81
2023-05-02T01:07:37.909Z,1017.81
2023-05-02T01:08:09.442Z,1017.71
2023-05-02T01:08:26.308Z,1017.71
2023-05-02T01:08:57.666Z,1017.71
2023-05-02T01:09:29.459Z,1017.71
2023-05-02T01:10:03.132Z,1017.71
2023-05-02T01:10:33.596Z,1017.71
2023-05-02T01:11:06.431Z,1017.81
2023-05-02T01:11:37.682Z,1017.81
2023-05-02T01:12:09.643Z,1017.71
2023-05-02T01:12:26.412Z,1017.71
2023-05-02T01:12:57.589Z,1017.81
2023-05-02T01:13:29.463Z,1017.81
2023-05-02T01:14:01.865Z,1017.61
2023-05-02T01:14:33.508Z,1017.61
2023-05-02T01:15:07.768Z,1017.71
2023-05-02T01:15:37.782Z,1017.71
2023-05-02T01:16:09.503Z,1017.81
2023-05-02T01:16:26.629Z,1017.81
2023-05-02T01:16:57.630Z,1017.61
2023-05-02T01:17:29.546Z,1017.61
2023-05-02T01:18:01.986Z,1017.81
2023-05-02T01:18:33.492Z,1017.81
2023-05-02T01:19:06.492Z,1017.91
2023-05-02T01:19:37.733Z,1017.91
2023-05-02T01:20:10.289Z,1017.81
2023-05-02T01:20:26.438Z,1017.81
2023-05-02T01:20:57.922Z,1017.81
2023-05-02T01:21:29.444Z,1017.81
2023-05-02T01:22:01.755Z,1018.01
2023-05-02T01:22:33.619Z,1018.01
2023-05-02T01:23:06.498Z,1017.71
2023-05-02T01:23:37.651Z,1017.71
2023-05-02T01:24:09.585Z,1018.01
2023-05-02T01:24:26.447Z,1018.01
2023-05-02T01:24:57.763Z,1017.91
2023-05-02T01:25:29.904Z,1017.91
2023-05-02T01:26:01.751Z,1017.91
2023-05-02T01:26:33.537Z,1017.91
2023-05-02T01:27:06.441Z,1017.91
2023-05-02T01:27:37.655Z,1017.91
2023-05-02T01:28:09.518Z,1017.91
2023-05-02T01:28:26.876Z,1017.91
2023-05-02T01:28:57.619Z,1018.01
2023-05-02T01:29:29.461Z,1018.01
2023-05-02T01:29:46.837Z,1018.12
2023-05-02T01:30:18.625Z,1018.12
2023-05-02T01:30:39.022Z,1017.91
2023-05-02T01:31:06.541Z,1017.91
2023-05-02T01:31:37.762Z,1017.91
2023-05-02T01:32:09.551Z,1017.91
2023-05-02T01:32:26.361Z,1017.91
2023-05-02T01:32:57.728Z,1017.91
2023-05-02T01:33:29.388Z,1017.91
2023-05-02T01:34:01.746Z,1018.12
2023-05-02T01:34:33.612Z,1018.12
2023-05-02T01:35:07.186Z,1018.12
2023-05-02T01:35:37.578Z,1018.12
2023-05-02T01:36:09.509Z,1018.01
2023-05-02T01:36:26.370Z,1018.01
2023-05-02T01:36:57.603Z,1017.91
2023-05-02T01:37:29.431Z,1017.91
2023-05-02T01:37:46.732Z,1017.91
2023-05-02T01:38:17.667Z,1017.91
2023-05-02T01:38:39.156Z,1018.12
2023-05-02T01:39:06.373Z,1018.12
2023-05-02T01:39:37.612Z,1018.12
2023-05-02T01:40:10.057Z,1017.91
2023-05-02T01:40:26.631Z,1017.91
2023-05-02T01:40:57.942Z,1018.01
2023-05-02T01:41:29.446Z,1018.01
2023-05-02T01:41:46.560Z,1018.32
2023-05-02T01:42:17.679Z,1018.32
2023-05-02T01:42:39.046Z,1018.22
2023-05-02T01:43:06.514Z,1018.22
2023-05-02T01:43:38.715Z,1018.22
2023-05-02T01:44:09.720Z,1018.01
2023-05-02T01:44:26.455Z,1018.01
2023-05-02T01:44:58.114Z,1018.12
2023-05-02T01:45:30.381Z,1018.12
2023-05-02T01:45:46.640Z,1018.01
2023-05-02T01:46:17.557Z,1018.01
2023-05-02T01:46:39.363Z,1018.01
2023-05-02T01:47:06.384Z,1018.01
2023-05-02T01:47:37.695Z,1018.01
2023-05-02T01:48:09.733Z,1018.12
2023-05-02T01:48:26.429Z,1018.12
2023-05-02T01:48:57.951Z,1018.12
2023-05-02T01:49:29.457Z,1018.12
2023-05-02T01:49:46.609Z,1018.12
2023-05-02T01:50:18.176Z,1018.12
2023-05-02T01:50:39.342Z,1017.91
2023-05-02T01:51:06.543Z,1017.91
2023-05-02T01:51:37.822Z,1017.91
2023-05-02T01:52:09.503Z,1018.01
2023-05-02T01:52:26.501Z,1018.01
2023-05-02T01:52:57.628Z,1017.91
2023-05-02T01:53:29.526Z,1017.91
2023-05-02T01:53:46.738Z,1018.01
2023-05-02T01:54:17.614Z,1018.01
2023-05-02T01:54:39.086Z,1017.91
2023-05-02T01:55:07.381Z,1017.91
2023-05-02T01:55:37.728Z,1017.91
2023-05-02T01:56:09.530Z,1018.12
2023-05-02T01:56:36.379Z,1018.22
2023-05-02T01:56:57.693Z,1018.22
2023-05-02T01:57:29.459Z,1018.22
2023-05-02T01:57:46.718Z,1018.12
2023-05-02T01:58:17.659Z,1018.12
2023-05-02T01:58:39.309Z,1018.12
2023-05-02T01:59:06.514Z,1018.12
2023-05-02T01:59:37.707Z,1018.12
2023-05-02T02:00:10.894Z,1018.22
2023-05-02T02:00:26.621Z,1018.22
2023-05-02T02:00:58.091Z,1018.32
2023-05-02T02:01:29.542Z,1018.32
2023-05-02T02:01:46.758Z,1018.01
2023-05-02T02:02:17.873Z,1018.01
2023-05-02T02:02:39.090Z,1018.22
2023-05-02T02:03:06.898Z,1018.22
2023-05-02T02:03:37.946Z,1018.22
2023-05-02T02:04:09.571Z,1018.01
2023-05-02T02:04:26.430Z,1018.01
2023-05-02T02:04:57.513Z,1018.12
2023-05-02T02:05:29.884Z,1018.12
2023-05-02T02:05:46.778Z,1018.12
2023-05-02T02:06:17.660Z,1018.12
2023-05-02T02:06:39.190Z,1018.22
2023-05-02T02:07:06.395Z,1018.22
2023-05-02T02:07:37.521Z,1018.22
2023-05-02T02:08:10.139Z,1018.22
2023-05-02T02:08:26.511Z,1018.22
2023-05-02T02:08:57.725Z,1018.12
2023-05-02T02:09:29.469Z,1018.12
2023-05-02T02:09:47.057Z,1018.12
2023-05-02T02:10:17.936Z,1018.12
2023-05-02T02:10:38.838Z,1018.22
2023-05-02T02:11:06.401Z,1018.22
2023-05-02T02:11:37.654Z,1018.22
2023-05-02T02:12:09.499Z,1018.32
2023-05-02T02:12:26.401Z,1018.32
2023-05-02T02:12:57.549Z,1018.32
2023-05-02T02:13:29.465Z,1018.32
2023-05-02T02:13:46.637Z,1018.42
2023-05-02T02:14:17.807Z,1018.42
2023-05-02T02:14:39.604Z,1018.22
2023-05-02T02:15:07.738Z,1018.22
2023-05-02T02:15:37.637Z,1018.22
2023-05-02T02:16:09.546Z,1018.32
2023-05-02T02:16:26.513Z,1018.32
2023-05-02T02:16:57.636Z,1018.32
2023-05-02T02:17:29.516Z,1018.32
2023-05-02T02:17:46.684Z,1018.32
2023-05-02T02:18:17.571Z,1018.32
2023-05-02T02:18:38.956Z,1018.42
2023-05-02T02:19:06.312Z,1018.42
2023-05-02T02:19:37.564Z,1018.42
2023-05-02T02:20:10.492Z,1018.32
2023-05-02T02:20:36.381Z,1018.42
2023-05-02T02:20:57.915Z,1018.42
2023-05-02T02:21:29.499Z,1018.42
2023-05-02T02:21:46.892Z,1018.52
2023-05-02T02:22:18.107Z,1018.52
2023-05-02T02:22:38.895Z,1018.32
2023-05-02T02:23:06.620Z,1018.32
2023-05-02T02:23:37.772Z,1018.32
2023-05-02T02:24:09.593Z,1018.42
2023-05-02T02:24:26.484Z,1018.42
2023-05-02T02:24:57.617Z,1018.52
2023-05-02T02:25:29.945Z,1018.52
2023-05-02T02:25:46.891Z,1018.32
2023-05-02T02:26:18.275Z,1018.32
2023-05-02T02:26:38.802Z,1018.32
2023-05-02T02:27:06.361Z,1018.32
2023-05-02T02:27:37.872Z,1018.32
2023-05-02T02:28:09.587Z,1018.32
2023-05-02T02:28:26.578Z,1018.32
2023-05-02T02:28:57.606Z,1018.52
2023-05-02T02:29:29.508Z,1018.52
2023-05-02T02:29:46.692Z,1018.62
2023-05-02T02:30:18.732Z,1018.62
2023-05-02T02:30:39.059Z,1018.32
2023-05-02T02:31:06.482Z,1018.32
2023-05-02T02:31:37.652Z,1018.32
2023-05-02T02:32:09.554Z,1018.62
2023-05-02T02:32:26.588Z,1018.62
2023-05-02T02:32:57.776Z,1018.62
2023-05-02T02:33:29.489Z,1018.62
2023-05-02T02:33:46.562Z,1018.52
2023-05-02T02:34:17.687Z,1018.52
2023-05-02T02:34:38.895Z,1018.32
2023-05-02T02:35:07.371Z,1018.32
2023-05-02T02:35:37.686Z,1018.32
2023-05-02T02:36:09.659Z,1018.52
2023-05-02T02:36:26.403Z,1018.52
2023-05-02T02:36:57.792Z,1018.52
2023-05-02T02:37:29.547Z,1018.52
2023-05-02T02:37:46.637Z,1018.62
2023-05-02T02:38:17.748Z,1018.62
2023-05-02T02:38:38.901Z,1018.52
2023-05-02T02:39:06.471Z,1018.52
2023-05-02T02:39:37.669Z,1018.52
2023-05-02T02:40:09.982Z,1018.62
2023-05-02T02:40:26.823Z,1018.62
2023-05-02T02:40:58.254Z,1018.52
2023-05-02T02:41:29.733Z,1018.52
2023-05-02T02:41:46.706Z,1018.52
2023-05-02T02:42:17.691Z,1018.52
2023-05-02T02:42:39.056Z,1018.83
2023-05-02T02:43:06.401Z,1018.83
2023-05-02T02:43:37.564Z,1018.83
2023-05-02T02:44:10.214Z,1018.52
2023-05-02T02:44:27.780Z,1018.52
2023-05-02T02:44:57.604Z,1018.73
2023-05-02T02:45:30.871Z,1018.73
2023-05-02T02:45:46.757Z,1018.52
2023-05-02T02:46:17.784Z,1018.52
2023-05-02T02:46:39.460Z,1018.83
2023-05-02T02:47:06.444Z,1018.83
2023-05-02T02:47:37.629Z,1018.83
2023-05-02T02:48:09.840Z,1018.73
2023-05-02T02:48:26.484Z,1018.73
2023-05-02T02:48:57.734Z,1018.52
2023-05-02T02:49:29.957Z,1018.52
2023-05-02T02:49:47.131Z,1018.62
2023-05-02T02:50:18.041Z,1018.62
2023-05-02T02:50:38.911Z,1018.83
2023-05-02T02:51:06.470Z,1018.83
2023-05-02T02:51:37.740Z,1018.83
2023-05-02T02:52:09.652Z,1018.62
2023-05-02T02:52:26.426Z,1018.62
2023-05-02T02:52:57.596Z,1018.73
2023-05-02T02:53:29.437Z,1018.73
2023-05-02T02:53:46.688Z,1018.83
2023-05-02T02:54:26.464Z,1018.83
2023-05-02T02:54:38.912Z,1018.62
2023-05-02T02:55:07.355Z,1018.62
2023-05-02T02:55:37.555Z,1018.62
2023-05-02T02:56:09.533Z,1018.62
2023-05-02T02:56:26.308Z,1018.62
2023-05-02T02:56:57.565Z,1018.73
2023-05-02T02:57:29.443Z,1018.73
2023-05-02T02:57:46.739Z,1018.73
2023-05-02T02:58:17.788Z,1018.73
2023-05-02T02:58:38.844Z,1018.93
2023-05-02T02:59:06.601Z,1018.93
2023-05-02T02:59:37.684Z,1018.93
2023-05-02T03:00:10.771Z,1018.83
2023-05-02T03:00:26.872Z,1018.83
2023-05-02T03:00:58.064Z,1018.83
2023-05-02T03:01:29.540Z,1018.83
2023-05-02T03:01:46.993Z,1018.83
2023-05-02T03:02:17.662Z,1018.83
2023-05-02T03:02:39.034Z,1018.73
2023-05-02T03:03:06.405Z,1018.73
2023-05-02T03:03:37.905Z,1018.73
2023-05-02T03:04:09.653Z,1018.73
2023-05-02T03:04:26.419Z,1018.73
2023-05-02T03:04:57.643Z,1018.83
2023-05-02T03:05:30.024Z,1018.83
2023-05-02T03:05:46.615Z,1018.73
2023-05-02T03:06:18.026Z,1018.73
2023-05-02T03:06:39.497Z,1018.83
2023-05-02T03:07:06.365Z,1018.83
2023-05-02T03:07:37.560Z,1018.83
2023-05-02T03:08:09.538Z,1018.93
2023-05-02T03:08:26.421Z,1018.93
2023-05-02T03:08:57.638Z,1019.03
2023-05-02T03:09:29.643Z,1019.03
2023-05-02T03:09:46.616Z,1018.83
2023-05-02T03:10:17.964Z,1018.83
2023-05-02T03:10:38.996Z,1018.73
2023-05-02T03:11:06.631Z,1018.73
2023-05-02T03:11:37.545Z,1018.73
2023-05-02T03:12:10.044Z,1018.83
2023-05-02T03:12:36.407Z,1018.83
2023-05-02T03:12:57.681Z,1018.83
2023-05-02T03:13:29.561Z,1018.83
2023-05-02T03:13:46.620Z,1018.83
2023-05-02T03:14:17.665Z,1018.83
2023-05-02T03:14:39.060Z,1018.83
2023-05-02T03:15:07.901Z,1018.83
2023-05-02T03:15:37.882Z,1018.83
2023-05-02T03:16:09.659Z,1019.03
2023-05-02T03:16:26.761Z,1019.03
2023-05-02T03:16:57.601Z,1019.03
2023-05-02T03:17:29.715Z,1019.03
2023-05-02T03:17:47.089Z,1018.73
2023-05-02T03:18:17.894Z,1018.73
2023-05-02T03:18:38.932Z,1018.93
2023-05-02T03:19:06.409Z,1018.93
2023-05-02T03:19:37.610Z,1018.93
2023-05-02T03:20:10.070Z,1019.03
2023-05-02T03:20:26.582Z,1019.03
2023-05-02T03:20:58.059Z,1018.73
2023-05-02T03:21:29.631Z,1018.73
2023-05-02T03:21:47.366Z,1019.03
2023-05-02T03:22:17.887Z,1019.03
2023-05-02T03:22:39.049Z,1018.83
2023-05-02T03:23:06.636Z,1018.83
2023-05-02T03:23:37.610Z,1018.83
2023-05-02T03:24:09.562Z,1019.03
2023-05-02T03:24:26.576Z,1019.03
2023-05-02T03:24:57.632Z,1019.03
2023-05-02T03:25:29.981Z,1019.03
2023-05-02T03:25:46.661Z,1018.93
2023-05-02T03:26:17.716Z,1018.93
2023-05-02T03:26:38.953Z,1019.13
2023-05-02T03:27:06.464Z,1019.13
2023-05-02T03:27:37.643Z,1019.13
2023-05-02T03:28:09.569Z,1019.03
2023-05-02T03:28:26.544Z,1019.03
2023-05-02T03:28:57.672Z,1019.13
2023-05-02T03:29:29.592Z,1019.13
2023-05-02T03:29:46.777Z,1019.03
2023-05-02T03:30:18.622Z,1019.03
2023-05-02T03:30:38.967Z,1019.13
2023-05-02T03:31:06.564Z,1019.13
2023-05-02T03:31:37.667Z,1019.13
2023-05-02T03:32:09.750Z,1019.03
2023-05-02T03:32:26.514Z,1019.03
2023-05-02T03:32:58.141Z,1019.23
2023-05-02T03:33:29.611Z,1019.23
2023-05-02T03:33:46.598Z,1019.23
2023-05-02T03:34:17.674Z,1019.23
2023-05-02T03:34:38.878Z,1018.93
2023-05-02T03:35:07.804Z,1018.93
2023-05-02T03:35:37.821Z,1018.93
2023-05-02T03:36:10.557Z,1019.34
2023-05-02T03:36:26.564Z,1019.34
2023-05-02T03:36:58.111Z,1019.13
2023-05-02T03:37:29.990Z,1019.13
2023-05-02T03:37:46.696Z,1019.34
2023-05-02T03:38:17.837Z,1019.34
2023-05-02T03:38:38.911Z,1019.03
2023-05-02T03:39:06.385Z,1019.03
2023-05-02T03:39:38.047Z,1019.03
2023-05-02T03:40:10.131Z,1019.23
2023-05-02T03:40:26.595Z,1019.23
2023-05-02T03:40:58.581Z,1019.23
2023-05-02T03:41:29.493Z,1019.23
2023-05-02T03:41:46.732Z,1019.23
2023-05-02T03:42:17.651Z,1019.23
2023-05-02T03:42:38.875Z,1019.34
2023-05-02T03:43:06.409Z,1019.34
2023-05-02T03:43:37.677Z,1019.34
2023-05-02T03:44:09.958Z,1019.13
2023-05-02T03:44:37.269Z,1019.13
2023-05-02T03:44:57.852Z,1019.13
2023-05-02T03:45:30.413Z,1019.13
2023-05-02T03:45:48.647Z,1019.34
2023-05-02T03:46:17.888Z,1019.34
2023-05-02T03:46:38.951Z,1019.34
2023-05-02T03:47:06.812Z,1019.34
2023-05-02T03:47:37.752Z,1019.34
2023-05-02T03:48:09.889Z,1019.23
2023-05-02T03:48:26.811Z,1019.23
2023-05-02T03:48:57.720Z,1019.34
2023-05-02T03:49:29.840Z,1019.34
2023-05-02T03:49:46.931Z,1019.23
2023-05-02T03:50:18.435Z,1019.23
2023-05-02T03:50:38.924Z,1019.44
2023-05-02T03:51:06.538Z,1019.44
2023-05-02T03:51:37.688Z,1019.44
2023-05-02T03:52:09.701Z,1019.34
2023-05-02T03:52:26.795Z,1019.34
2023-05-02T03:52:57.881Z,1019.34
2023-05-02T03:53:29.866Z,1019.34
2023-05-02T03:53:47.513Z,1019.23
2023-05-02T03:54:19.233Z,1019.23
2023-05-02T03:54:39.564Z,1019.23
2023-05-02T03:55:07.683Z,1019.23
2023-05-02T03:55:37.827Z,1019.23
2023-05-02T03:56:09.822Z,1019.34
2023-05-02T03:56:26.644Z,1019.34
2023-05-02T03:56:57.958Z,1019.44
2023-05-02T03:57:29.673Z,1019.44
2023-05-02T03:57:46.886Z,1019.34
2023-05-02T03:58:17.885Z,1019.34
2023-05-02T03:58:39.143Z,1019.23
2023-05-02T03:59:07.268Z,1019.23
2023-05-02T03:59:37.818Z,1019.23
2023-05-02T04:00:11.031Z,1019.34
2023-05-02T04:00:27.017Z,1019.34
2023-05-02T04:00:58.324Z,1019.74
2023-05-02T04:01:29.836Z,1019.74
2023-05-02T04:01:46.858Z,1019.34
2023-05-02T04:02:18.557Z,1019.34
2023-05-02T04:02:39.819Z,1019.44
2023-05-02T04:03:06.664Z,1019.44
2023-05-02T04:03:37.911Z,1019.44
2023-05-02T04:04:10.870Z,1019.44
2023-05-02T04:04:36.929Z,1019.64
2023-05-02T04:04:57.872Z,1019.64
2023-05-02T04:05:30.186Z,1019.64
2023-05-02T04:05:46.963Z,1019.54
2023-05-02T04:06:17.902Z,1019.54
2023-05-02T04:06:39.769Z,1019.54
2023-05-02T04:07:06.732Z,1019.54
2023-05-02T04:07:37.745Z,1019.54
2023-05-02T04:08:09.635Z,1019.54
2023-05-02T04:08:26.663Z,1019.54
2023-05-02T04:08:58.067Z,1019.44
2023-05-02T04:09:29.906Z,1019.44
2023-05-02T04:09:46.900Z,1019.54
2023-05-02T04:10:18.377Z,1019.54
2023-05-02T04:10:38.984Z,1019.54
2023-05-02T04:11:06.576Z,1019.54
2023-05-02T04:11:37.965Z,1019.54
2023-05-02T04:12:09.785Z,1019.44
2023-05-02T04:12:26.864Z,1019.44
2023-05-02T04:12:57.804Z,1019.54
2023-05-02T04:13:29.746Z,1019.54
2023-05-02T04:13:47.224Z,1019.54
2023-05-02T04:14:17.966Z,1019.54
2023-05-02T04:14:39.168Z,1019.74
2023-05-02T04:15:08.032Z,1019.74
2023-05-02T04:15:37.855Z,1019.74
2023-05-02T04:16:09.758Z,1019.74
2023-05-02T04:16:26.796Z,1019.74
2023-05-02T04:16:57.834Z,1019.64
2023-05-02T04:17:29.835Z,1019.64
2023-05-02T04:17:47.087Z,1019.44
2023-05-02T04:18:18.473Z,1019.44
2023-05-02T04:18:39.146Z,1019.74
2023-05-02T04:19:06.731Z,1019.74
2023-05-02T04:19:37.876Z,1019.74
2023-05-02T04:20:10.312Z,1019.54
2023-05-02T04:20:26.830Z,1019.54
2023-05-02T04:20:58.350Z,1019.81
2023-05-02T04:21:29.702Z,1019.81
2023-05-02T04:21:47.072Z,1019.91
2023-05-02T04:22:18.080Z,1019.91
2023-05-02T04:22:39.093Z,1019.74
2023-05-02T04:23:06.722Z,1019.74
2023-05-02T04:23:37.961Z,1019.74
2023-05-02T04:24:09.716Z,1019.81
2023-05-02T04:24:26.738Z,1019.81
2023-05-02T04:24:58.088Z,1019.64
2023-05-02T04:25:30.208Z,1019.64
2023-05-02T04:25:46.904Z,1019.74
2023-05-02T04:26:17.954Z,1019.74
2023-05-02T04:26:39.046Z,1019.64
2023-05-02T04:27:06.757Z,1019.64
2023-05-02T04:27:37.892Z,1019.64
2023-05-02T04:28:09.941Z,1019.74
2023-05-02T04:28:38.362Z,1019.74
2023-05-02T04:28:57.972Z,1019.74
2023-05-02T04:29:29.921Z,1019.74
2023-05-02T04:29:47.420Z,1019.81
2023-05-02T04:30:19.570Z,1019.81
2023-05-02T04:30:39.497Z,1019.91
2023-05-02T04:31:06.724Z,1019.91
2023-05-02T04:31:38.283Z,1019.91
2023-05-02T04:32:09.829Z,1019.74
2023-05-02T04:32:26.746Z,1019.74
2023-05-02T04:32:58.071Z,1019.81
2023-05-02T04:33:29.728Z,1019.81
2023-05-02T04:33:46.933Z,1019.74
2023-05-02T04:34:17.891Z,1019.74
2023-05-02T04:34:39.932Z,1019.91
2023-05-02T04:35:07.643Z,1019.91
2023-05-02T04:35:38.099Z,1019.91
2023-05-02T04:36:09.748Z,1019.74
2023-05-02T04:36:26.764Z,1019.74
2023-05-02T04:36:57.863Z,1019.81
2023-05-02T04:37:29.671Z,1019.81
2023-05-02T04:37:46.993Z,1019.81
2023-05-02T04:38:17.824Z,1019.81
2023-05-02T04:38:39.158Z,1019.81
2023-05-02T04:39:06.763Z,1019.81
2023-05-02T04:39:37.799Z,1019.81
2023-05-02T04:40:10.430Z,1019.74
2023-05-02T04:40:26.638Z,1019.74
2023-05-02T04:40:58.351Z,1019.91
2023-05-02T04:41:29.762Z,1019.91
2023-05-02T04:41:47.544Z,1019.81
2023-05-02T04:42:18.132Z,1019.81
2023-05-02T04:42:39.281Z,1019.74
2023-05-02T04:43:06.765Z,1019.74
2023-05-02T04:43:37.971Z,1019.74
2023-05-02T04:44:10.685Z,1020.01
2023-05-02T04:44:26.836Z,1020.01
2023-05-02T04:44:57.873Z,1019.91
2023-05-02T04:45:30.511Z,1019.91
2023-05-02T04:45:47.527Z,1020.11
2023-05-02T04:46:17.928Z,1020.11
2023-05-02T04:46:39.932Z,1019.81
2023-05-02T04:47:06.759Z,1019.81
2023-05-02T04:47:37.975Z,1019.81
2023-05-02T04:48:09.801Z,1019.91
2023-05-02T04:48:26.752Z,1019.91
2023-05-02T04:48:57.865Z,1020.11
2023-05-02T04:49:29.969Z,1020.11
2023-05-02T04:49:47.345Z,1019.91
2023-05-02T04:50:18.447Z,1019.91
2023-05-02T04:50:39.666Z,1020.11
2023-05-02T04:51:06.633Z,1020.11
2023-05-02T04:51:37.778Z,1020.11
2023-05-02T04:52:09.813Z,1020.11
2023-05-02T04:52:26.738Z,1020.11
2023-05-02T04:52:58.039Z,1020.01
2023-05-02T04:53:29.643Z,1020.01
2023-05-02T04:53:47.670Z,1020.11
2023-05-02T04:54:18.256Z,1020.11
2023-05-02T04:54:39.197Z,1019.81
2023-05-02T04:55:07.520Z,1019.81
2023-05-02T04:55:37.893Z,1019.81
2023-05-02T04:56:10.390Z,1020.32
2023-05-02T04:56:36.654Z,1020.11
2023-05-02T04:56:57.816Z,1020.11
2023-05-02T04:57:29.895Z,1020.11
2023-05-02T04:57:46.583Z,1020.11
2023-05-02T04:58:18.087Z,1020.11
2023-05-02T04:58:39.612Z,1020.11
2023-05-02T04:59:06.627Z,1020.11
2023-05-02T04:59:37.794Z,1020.11
2023-05-02T05:00:11.102Z,1020.22
2023-05-02T05:00:26.955Z,1020.22
2023-05-02T05:00:58.340Z,1020.11
2023-05-02T05:01:29.952Z,1020.11
2023-05-02T05:01:46.920Z,1020.11
2023-05-02T05:02:18.028Z,1020.11
2023-05-02T05:02:39.356Z,1020.22
2023-05-02T05:03:06.710Z,1020.22
2023-05-02T05:03:38.264Z,1020.22
2023-05-02T05:04:09.919Z,1020.22
2023-05-02T05:04:26.666Z,1020.22
2023-05-02T05:04:58.035Z,1020.22
2023-05-02T05:05:30.282Z,1020.22
2023-05-02T05:05:47.044Z,1020.11
2023-05-02T05:06:17.885Z,1020.11
2023-05-02T05:06:39.101Z,1020.32
2023-05-02T05:07:06.737Z,1020.32
2023-05-02T05:07:37.963Z,1020.32
2023-05-02T05:08:09.764Z,1020.52
2023-05-02T05:08:26.780Z,1020.52
2023-05-02T05:08:58.341Z,1020.32
2023-05-02T05:09:31.063Z,1020.32
2023-05-02T05:09:46.974Z,1020.32
2023-05-02T05:10:18.651Z,1020.32
2023-05-02T05:10:39.832Z,1020.32
2023-05-02T05:11:06.683Z,1020.32
2023-05-02T05:11:37.814Z,1020.32
2023-05-02T05:12:10.240Z,1020.22
2023-05-02T05:12:26.753Z,1020.22
2023-05-02T05:12:59.259Z,1020.32
2023-05-02T05:13:29.743Z,1020.32
2023-05-02T05:14:02.084Z,1020.22
2023-05-02T05:14:33.825Z,1020.22
2023-05-02T05:15:08.002Z,1020.42
2023-05-02T05:15:37.840Z,1020.42
2023-05-02T05:16:09.867Z,1020.32
2023-05-02T05:16:26.770Z,1020.32
2023-05-02T05:16:58.210Z,1020.52
2023-05-02T05:17:29.768Z,1020.52
2023-05-02T05:17:47.145Z,1020.22
2023-05-02T05:18:18.050Z,1020.22
2023-05-02T05:18:39.108Z,1020.52
2023-05-02T05:19:06.771Z,1020.52
2023-05-02T05:19:37.977Z,1020.52
2023-05-02T05:20:10.383Z,1020.42
2023-05-02T05:20:26.793Z,1020.42
2023-05-02T05:20:58.199Z,1020.42
2023-05-02T05:21:29.654Z,1020.42
2023-05-02T05:21:47.020Z,1020.42
2023-05-02T05:22:17.850Z,1020.42
2023-05-02T05:22:39.630Z,1020.52
2023-05-02T05:23:06.611Z,1020.52
2023-05-02T05:23:37.791Z,1020.52
2023-05-02T05:24:09.902Z,1020.62
2023-05-02T05:24:26.942Z,1020.62
2023-05-02T05:24:57.928Z,1020.62
2023-05-02T05:25:30.574Z,1020.62
2023-05-02T05:25:46.876Z,1020.72
2023-05-02T05:26:17.939Z,1020.72
2023-05-02T05:26:39.113Z,1020.42
2023-05-02T05:27:07.278Z,1020.42
2023-05-02T05:27:38.274Z,1020.42
2023-05-02T05:28:09.789Z,1020.62
2023-05-02T05:28:26.726Z,1020.62
2023-05-02T05:28:57.855Z,1020.83
2023-05-02T05:29:29.795Z,1020.83
2023-05-02T05:29:47.188Z,1020.72
2023-05-02T05:30:18.909Z,1020.72
2023-05-02T05:30:39.173Z,1020.52
2023-05-02T05:31:06.750Z,1020.52
2023-05-02T05:31:37.988Z,1020.52
2023-05-02T05:32:10.731Z,1020.72